sensor_id;sensor_type;location;lat;lon;timestamp;P1;durP1;ratioP1;P2;durP2;ratioP2
53903;SDS011;39812;52.430;16.936;2023-11-21T00:02:04;33.00;;;12.13;;
53903;SDS011;39812;52.430;16.936;2023-11-21T00:04:30;31.08;;;11.90;;
53903;SDS011;39812;52.430;16.936;2023-11-21T00:06:56;29.85;;;11.43;;
53903;SDS011;39812;52.430;16.936;2023-11-21T00:09:21;29.08;;;11.93;;
53903;SDS011;39812;52.430;16.936;2023-11-21T00:11:47;31.30;;;12.48;;
53903;SDS011;39812;52.430;16.936;2023-11-21T00:14:13;27.25;;;11.32;;
53903;SDS011;39812;52.430;16.936;2023-11-21T00:16:40;33.78;;;11.82;;
53903;SDS011;39812;52.430;16.936;2023-11-21T00:19:06;28.92;;;12.27;;
53903;SDS011;39812;52.430;16.936;2023-11-21T00:21:32;28.38;;;10.95;;
53903;SDS011;39812;52.430;16.936;2023-11-21T00:23:57;33.05;;;12.55;;
53903;SDS011;39812;52.430;16.936;2023-11-21T00:26:23;33.42;;;13.25;;
53903;SDS011;39812;52.430;16.936;2023-11-21T00:28:50;32.42;;;13.25;;
53903;SDS011;39812;52.430;16.936;2023-11-21T00:31:16;40.65;;;14.23;;
53903;SDS011;39812;52.430;16.936;2023-11-21T00:33:41;37.28;;;14.48;;
53903;SDS011;39812;52.430;16.936;2023-11-21T00:36:08;40.97;;;13.85;;
53903;SDS011;39812;52.430;16.936;2023-11-21T00:38:34;40.90;;;15.23;;
53903;SDS011;39812;52.430;16.936;2023-11-21T00:41:04;37.60;;;14.05;;
53903;SDS011;39812;52.430;16.936;2023-11-21T00:43:31;39.33;;;15.10;;
53903;SDS011;39812;52.430;16.936;2023-11-21T00:45:58;36.58;;;13.77;;
53903;SDS011;39812;52.430;16.936;2023-11-21T00:48:24;35.63;;;15.40;;
53903;SDS011;39812;52.430;16.936;2023-11-21T00:50:50;42.08;;;15.38;;
53903;SDS011;39812;52.430;16.936;2023-11-21T00:53:16;42.22;;;15.80;;
53903;SDS011;39812;52.430;16.936;2023-11-21T00:55:42;37.83;;;14.18;;
53903;SDS011;39812;52.430;16.936;2023-11-21T00:58:07;39.38;;;14.23;;
53903;SDS011;39812;52.430;16.936;2023-11-21T01:00:33;41.63;;;15.40;;
53903;SDS011;39812;52.430;16.936;2023-11-21T01:02:59;36.60;;;14.82;;
53903;SDS011;39812;52.430;16.936;2023-11-21T01:05:25;42.33;;;16.08;;
53903;SDS011;39812;52.430;16.936;2023-11-21T01:07:51;39.97;;;15.95;;
53903;SDS011;39812;52.430;16.936;2023-11-21T01:10:17;47.55;;;15.95;;
53903;SDS011;39812;52.430;16.936;2023-11-21T01:12:43;48.58;;;17.38;;
53903;SDS011;39812;52.430;16.936;2023-11-21T01:15:09;40.17;;;16.23;;
53903;SDS011;39812;52.430;16.936;2023-11-21T01:17:37;43.13;;;15.68;;
53903;SDS011;39812;52.430;16.936;2023-11-21T01:20:03;40.10;;;16.05;;
53903;SDS011;39812;52.430;16.936;2023-11-21T01:22:36;43.88;;;15.32;;
53903;SDS011;39812;52.430;16.936;2023-11-21T01:25:02;38.28;;;14.80;;
53903;SDS011;39812;52.430;16.936;2023-11-21T01:27:30;43.58;;;14.93;;
53903;SDS011;39812;52.430;16.936;2023-11-21T01:29:55;40.53;;;15.63;;
53903;SDS011;39812;52.430;16.936;2023-11-21T01:32:21;40.80;;;14.63;;
53903;SDS011;39812;52.430;16.936;2023-11-21T01:34:47;46.83;;;17.85;;
53903;SDS011;39812;52.430;16.936;2023-11-21T01:37:15;45.75;;;16.20;;
53903;SDS011;39812;52.430;16.936;2023-11-21T01:39:42;38.88;;;14.60;;
53903;SDS011;39812;52.430;16.936;2023-11-21T01:42:09;47.05;;;15.52;;
53903;SDS011;39812;52.430;16.936;2023-11-21T01:44:37;46.58;;;16.80;;
53903;SDS011;39812;52.430;16.936;2023-11-21T01:47:04;45.80;;;15.07;;
53903;SDS011;39812;52.430;16.936;2023-11-21T01:49:34;42.85;;;15.15;;
53903;SDS011;39812;52.430;16.936;2023-11-21T01:52:01;43.17;;;16.17;;
53903;SDS011;39812;52.430;16.936;2023-11-21T01:54:29;41.00;;;16.05;;
53903;SDS011;39812;52.430;16.936;2023-11-21T01:56:58;41.00;;;16.35;;
53903;SDS011;39812;52.430;16.936;2023-11-21T01:59:28;48.05;;;16.25;;
53903;SDS011;39812;52.430;16.936;2023-11-21T02:01:59;41.15;;;15.80;;
53903;SDS011;39812;52.430;16.936;2023-11-21T02:04:25;50.08;;;16.50;;
53903;SDS011;39812;52.430;16.936;2023-11-21T02:06:52;44.83;;;14.35;;
53903;SDS011;39812;52.430;16.936;2023-11-21T02:09:23;42.33;;;17.15;;
53903;SDS011;39812;52.430;16.936;2023-11-21T02:11:50;44.67;;;16.65;;
53903;SDS011;39812;52.430;16.936;2023-11-21T02:14:16;43.83;;;15.23;;
53903;SDS011;39812;52.430;16.936;2023-11-21T02:16:45;44.63;;;15.80;;
53903;SDS011;39812;52.430;16.936;2023-11-21T02:19:12;48.13;;;16.17;;
53903;SDS011;39812;52.430;16.936;2023-11-21T02:21:45;42.42;;;15.23;;
53903;SDS011;39812;52.430;16.936;2023-11-21T02:24:11;38.47;;;14.10;;
53903;SDS011;39812;52.430;16.936;2023-11-21T02:26:37;35.95;;;13.93;;
53903;SDS011;39812;52.430;16.936;2023-11-21T02:29:03;38.13;;;13.05;;
53903;SDS011;39812;52.430;16.936;2023-11-21T02:31:29;40.17;;;13.90;;
53903;SDS011;39812;52.430;16.936;2023-11-21T02:33:55;36.80;;;15.65;;
53903;SDS011;39812;52.430;16.936;2023-11-21T02:36:20;41.50;;;16.08;;
53903;SDS011;39812;52.430;16.936;2023-11-21T02:38:46;47.22;;;15.93;;
53903;SDS011;39812;52.430;16.936;2023-11-21T02:41:12;48.08;;;16.30;;
53903;SDS011;39812;52.430;16.936;2023-11-21T02:43:38;43.45;;;16.42;;
53903;SDS011;39812;52.430;16.936;2023-11-21T02:46:04;47.20;;;18.15;;
53903;SDS011;39812;52.430;16.936;2023-11-21T02:48:30;43.60;;;16.15;;
53903;SDS011;39812;52.430;16.936;2023-11-21T02:50:55;43.53;;;15.23;;
53903;SDS011;39812;52.430;16.936;2023-11-21T02:53:22;48.47;;;17.23;;
53903;SDS011;39812;52.430;16.936;2023-11-21T02:55:49;39.05;;;14.93;;
53903;SDS011;39812;52.430;16.936;2023-11-21T02:58:15;49.47;;;17.33;;
53903;SDS011;39812;52.430;16.936;2023-11-21T03:00:41;46.40;;;15.85;;
53903;SDS011;39812;52.430;16.936;2023-11-21T03:03:07;39.25;;;14.43;;
53903;SDS011;39812;52.430;16.936;2023-11-21T03:05:33;44.75;;;14.85;;
53903;SDS011;39812;52.430;16.936;2023-11-21T03:08:00;53.47;;;16.55;;
53903;SDS011;39812;52.430;16.936;2023-11-21T03:10:26;45.25;;;17.05;;
53903;SDS011;39812;52.430;16.936;2023-11-21T03:12:52;47.67;;;14.75;;
53903;SDS011;39812;52.430;16.936;2023-11-21T03:15:18;39.00;;;13.70;;
53903;SDS011;39812;52.430;16.936;2023-11-21T03:17:44;39.72;;;13.52;;
53903;SDS011;39812;52.430;16.936;2023-11-21T03:20:10;44.65;;;17.00;;
53903;SDS011;39812;52.430;16.936;2023-11-21T03:22:36;46.95;;;14.80;;
53903;SDS011;39812;52.430;16.936;2023-11-21T03:25:03;45.05;;;15.07;;
53903;SDS011;39812;52.430;16.936;2023-11-21T03:27:30;38.22;;;16.13;;
53903;SDS011;39812;52.430;16.936;2023-11-21T03:29:55;43.08;;;15.38;;
53903;SDS011;39812;52.430;16.936;2023-11-21T03:32:21;42.13;;;14.10;;
53903;SDS011;39812;52.430;16.936;2023-11-21T03:34:57;38.63;;;13.48;;
53903;SDS011;39812;52.430;16.936;2023-11-21T03:37:23;39.92;;;14.45;;
53903;SDS011;39812;52.430;16.936;2023-11-21T03:39:50;46.75;;;14.65;;
53903;SDS011;39812;52.430;16.936;2023-11-21T03:42:16;39.25;;;14.00;;
53903;SDS011;39812;52.430;16.936;2023-11-21T03:44:41;29.73;;;12.20;;
53903;SDS011;39812;52.430;16.936;2023-11-21T03:47:07;31.02;;;11.65;;
53903;SDS011;39812;52.430;16.936;2023-11-21T03:49:32;30.58;;;11.85;;
53903;SDS011;39812;52.430;16.936;2023-11-21T03:51:58;27.85;;;11.20;;
53903;SDS011;39812;52.430;16.936;2023-11-21T03:54:24;32.40;;;10.30;;
53903;SDS011;39812;52.430;16.936;2023-11-21T03:56:50;30.35;;;10.02;;
53903;SDS011;39812;52.430;16.936;2023-11-21T03:59:17;30.30;;;9.85;;
53903;SDS011;39812;52.430;16.936;2023-11-21T04:01:43;29.85;;;10.02;;
53903;SDS011;39812;52.430;16.936;2023-11-21T04:04:08;28.40;;;9.35;;
53903;SDS011;39812;52.430;16.936;2023-11-21T04:06:34;28.20;;;9.77;;
53903;SDS011;39812;52.430;16.936;2023-11-21T04:09:01;23.75;;;8.95;;
53903;SDS011;39812;52.430;16.936;2023-11-21T04:11:29;25.30;;;9.10;;
53903;SDS011;39812;52.430;16.936;2023-11-21T04:13:55;26.77;;;9.25;;
53903;SDS011;39812;52.430;16.936;2023-11-21T04:16:21;22.25;;;9.07;;
53903;SDS011;39812;52.430;16.936;2023-11-21T04:18:47;29.25;;;8.98;;
53903;SDS011;39812;52.430;16.936;2023-11-21T04:21:13;28.75;;;10.82;;
53903;SDS011;39812;52.430;16.936;2023-11-21T04:23:38;22.50;;;9.27;;
53903;SDS011;39812;52.430;16.936;2023-11-21T04:26:05;27.50;;;10.45;;
53903;SDS011;39812;52.430;16.936;2023-11-21T04:28:30;29.00;;;9.88;;
53903;SDS011;39812;52.430;16.936;2023-11-21T04:30:56;23.67;;;10.10;;
53903;SDS011;39812;52.430;16.936;2023-11-21T04:33:22;23.90;;;9.23;;
53903;SDS011;39812;52.430;16.936;2023-11-21T04:35:48;19.30;;;8.48;;
53903;SDS011;39812;52.430;16.936;2023-11-21T04:38:14;20.27;;;8.63;;
53903;SDS011;39812;52.430;16.936;2023-11-21T04:40:40;23.10;;;8.40;;
53903;SDS011;39812;52.430;16.936;2023-11-21T04:43:06;19.55;;;7.53;;
53903;SDS011;39812;52.430;16.936;2023-11-21T04:45:32;20.90;;;7.53;;
53903;SDS011;39812;52.430;16.936;2023-11-21T04:47:57;23.08;;;8.10;;
53903;SDS011;39812;52.430;16.936;2023-11-21T04:50:23;18.00;;;6.53;;
53903;SDS011;39812;52.430;16.936;2023-11-21T04:52:52;22.92;;;8.18;;
53903;SDS011;39812;52.430;16.936;2023-11-21T04:55:17;12.30;;;5.55;;
53903;SDS011;39812;52.430;16.936;2023-11-21T04:57:44;12.48;;;6.53;;
53903;SDS011;39812;52.430;16.936;2023-11-21T05:00:10;19.58;;;7.40;;
53903;SDS011;39812;52.430;16.936;2023-11-21T05:02:37;13.07;;;5.88;;
53903;SDS011;39812;52.430;16.936;2023-11-21T05:05:03;10.63;;;5.82;;
53903;SDS011;39812;52.430;16.936;2023-11-21T05:07:32;9.32;;;5.03;;
53903;SDS011;39812;52.430;16.936;2023-11-21T05:10:00;12.20;;;6.50;;
53903;SDS011;39812;52.430;16.936;2023-11-21T05:12:30;11.45;;;4.97;;
53903;SDS011;39812;52.430;16.936;2023-11-21T05:15:05;9.65;;;5.10;;
53903;SDS011;39812;52.430;16.936;2023-11-21T05:17:37;12.85;;;4.93;;
53903;SDS011;39812;52.430;16.936;2023-11-21T05:20:07;10.50;;;4.57;;
53903;SDS011;39812;52.430;16.936;2023-11-21T05:22:34;9.60;;;4.88;;
53903;SDS011;39812;52.430;16.936;2023-11-21T05:25:01;8.68;;;4.45;;
53903;SDS011;39812;52.430;16.936;2023-11-21T05:27:28;6.95;;;4.18;;
53903;SDS011;39812;52.430;16.936;2023-11-21T05:29:55;7.93;;;3.78;;
53903;SDS011;39812;52.430;16.936;2023-11-21T05:32:22;9.40;;;4.60;;
53903;SDS011;39812;52.430;16.936;2023-11-21T05:34:48;6.68;;;4.20;;
53903;SDS011;39812;52.430;16.936;2023-11-21T05:37:14;8.27;;;4.40;;
53903;SDS011;39812;52.430;16.936;2023-11-21T05:39:40;8.13;;;4.38;;
53903;SDS011;39812;52.430;16.936;2023-11-21T05:42:05;8.48;;;4.68;;
53903;SDS011;39812;52.430;16.936;2023-11-21T05:44:33;7.32;;;4.30;;
53903;SDS011;39812;52.430;16.936;2023-11-21T05:47:00;7.40;;;4.38;;
53903;SDS011;39812;52.430;16.936;2023-11-21T05:49:25;7.32;;;4.07;;
53903;SDS011;39812;52.430;16.936;2023-11-21T05:51:52;9.60;;;4.78;;
53903;SDS011;39812;52.430;16.936;2023-11-21T05:54:21;11.80;;;4.28;;
53903;SDS011;39812;52.430;16.936;2023-11-21T05:56:47;8.13;;;4.68;;
53903;SDS011;39812;52.430;16.936;2023-11-21T05:59:14;9.00;;;4.55;;
53903;SDS011;39812;52.430;16.936;2023-11-21T06:01:40;8.05;;;4.70;;
53903;SDS011;39812;52.430;16.936;2023-11-21T06:04:06;9.25;;;5.28;;
53903;SDS011;39812;52.430;16.936;2023-11-21T06:06:34;10.70;;;5.03;;
53903;SDS011;39812;52.430;16.936;2023-11-21T06:09:00;9.05;;;5.05;;
53903;SDS011;39812;52.430;16.936;2023-11-21T06:11:26;7.55;;;4.25;;
53903;SDS011;39812;52.430;16.936;2023-11-21T06:13:52;7.40;;;4.45;;
53903;SDS011;39812;52.430;16.936;2023-11-21T06:16:18;10.35;;;5.30;;
53903;SDS011;39812;52.430;16.936;2023-11-21T06:18:47;12.95;;;5.45;;
53903;SDS011;39812;52.430;16.936;2023-11-21T06:21:13;11.18;;;5.13;;
53903;SDS011;39812;52.430;16.936;2023-11-21T06:23:38;10.32;;;4.95;;
53903;SDS011;39812;52.430;16.936;2023-11-21T06:26:04;10.07;;;5.45;;
53903;SDS011;39812;52.430;16.936;2023-11-21T06:28:31;9.50;;;5.78;;
53903;SDS011;39812;52.430;16.936;2023-11-21T06:30:57;10.88;;;6.25;;
53903;SDS011;39812;52.430;16.936;2023-11-21T06:33:23;9.60;;;5.18;;
53903;SDS011;39812;52.430;16.936;2023-11-21T06:35:52;9.30;;;5.38;;
53903;SDS011;39812;52.430;16.936;2023-11-21T06:38:18;11.15;;;5.88;;
53903;SDS011;39812;52.430;16.936;2023-11-21T06:40:44;12.70;;;5.70;;
53903;SDS011;39812;52.430;16.936;2023-11-21T06:43:11;8.50;;;4.95;;
53903;SDS011;39812;52.430;16.936;2023-11-21T06:45:37;9.85;;;6.45;;
53903;SDS011;39812;52.430;16.936;2023-11-21T06:48:02;9.95;;;5.63;;
53903;SDS011;39812;52.430;16.936;2023-11-21T06:50:28;12.00;;;6.05;;
53903;SDS011;39812;52.430;16.936;2023-11-21T06:52:54;11.30;;;5.85;;
53903;SDS011;39812;52.430;16.936;2023-11-21T06:55:20;9.85;;;5.57;;
53903;SDS011;39812;52.430;16.936;2023-11-21T06:57:46;10.10;;;4.90;;
53903;SDS011;39812;52.430;16.936;2023-11-21T07:00:12;10.00;;;5.15;;
53903;SDS011;39812;52.430;16.936;2023-11-21T07:02:40;8.75;;;4.97;;
53903;SDS011;39812;52.430;16.936;2023-11-21T07:05:06;9.50;;;5.22;;
53903;SDS011;39812;52.430;16.936;2023-11-21T07:07:32;8.38;;;4.93;;
53903;SDS011;39812;52.430;16.936;2023-11-21T07:10:00;7.25;;;4.82;;
53903;SDS011;39812;52.430;16.936;2023-11-21T07:12:28;8.57;;;5.32;;
53903;SDS011;39812;52.430;16.936;2023-11-21T07:14:55;10.55;;;5.32;;
53903;SDS011;39812;52.430;16.936;2023-11-21T07:17:21;9.60;;;5.22;;
53903;SDS011;39812;52.430;16.936;2023-11-21T07:19:48;10.90;;;5.85;;
53903;SDS011;39812;52.430;16.936;2023-11-21T07:22:14;8.45;;;5.05;;
53903;SDS011;39812;52.430;16.936;2023-11-21T07:24:46;9.90;;;4.57;;
53903;SDS011;39812;52.430;16.936;2023-11-21T07:27:13;11.23;;;6.70;;
53903;SDS011;39812;52.430;16.936;2023-11-21T07:29:39;11.38;;;5.50;;
53903;SDS011;39812;52.430;16.936;2023-11-21T07:32:05;11.25;;;5.43;;
53903;SDS011;39812;52.430;16.936;2023-11-21T07:34:31;10.15;;;5.50;;
53903;SDS011;39812;52.430;16.936;2023-11-21T07:36:57;11.93;;;6.40;;
53903;SDS011;39812;52.430;16.936;2023-11-21T07:39:23;12.15;;;6.32;;
53903;SDS011;39812;52.430;16.936;2023-11-21T07:41:49;13.68;;;5.82;;
53903;SDS011;39812;52.430;16.936;2023-11-21T07:44:15;11.15;;;5.93;;
53903;SDS011;39812;52.430;16.936;2023-11-21T07:46:42;13.82;;;6.38;;
53903;SDS011;39812;52.430;16.936;2023-11-21T07:49:09;10.30;;;5.65;;
53903;SDS011;39812;52.430;16.936;2023-11-21T07:51:35;10.07;;;4.82;;
53903;SDS011;39812;52.430;16.936;2023-11-21T07:54:01;8.32;;;4.50;;
53903;SDS011;39812;52.430;16.936;2023-11-21T07:56:27;8.02;;;4.60;;
53903;SDS011;39812;52.430;16.936;2023-11-21T07:58:52;8.57;;;4.35;;
53903;SDS011;39812;52.430;16.936;2023-11-21T08:01:18;10.52;;;5.05;;
53903;SDS011;39812;52.430;16.936;2023-11-21T08:03:44;8.20;;;4.50;;
53903;SDS011;39812;52.430;16.936;2023-11-21T08:06:10;8.45;;;4.47;;
53903;SDS011;39812;52.430;16.936;2023-11-21T08:08:37;10.18;;;5.30;;
53903;SDS011;39812;52.430;16.936;2023-11-21T08:11:03;9.85;;;5.22;;
53903;SDS011;39812;52.430;16.936;2023-11-21T08:13:29;7.32;;;3.95;;
53903;SDS011;39812;52.430;16.936;2023-11-21T08:15:58;8.93;;;4.30;;
53903;SDS011;39812;52.430;16.936;2023-11-21T08:18:29;7.68;;;4.45;;
53903;SDS011;39812;52.430;16.936;2023-11-21T08:20:55;8.75;;;4.80;;
53903;SDS011;39812;52.430;16.936;2023-11-21T08:23:21;7.20;;;4.38;;
53903;SDS011;39812;52.430;16.936;2023-11-21T08:25:50;7.15;;;4.03;;
53903;SDS011;39812;52.430;16.936;2023-11-21T08:28:16;8.68;;;4.97;;
53903;SDS011;39812;52.430;16.936;2023-11-21T08:30:42;6.72;;;4.30;;
53903;SDS011;39812;52.430;16.936;2023-11-21T08:33:09;8.13;;;4.25;;
53903;SDS011;39812;52.430;16.936;2023-11-21T08:35:36;7.95;;;5.22;;
53903;SDS011;39812;52.430;16.936;2023-11-21T08:38:02;7.13;;;4.25;;
53903;SDS011;39812;52.430;16.936;2023-11-21T08:40:28;9.30;;;5.20;;
53903;SDS011;39812;52.430;16.936;2023-11-21T08:42:54;7.80;;;4.40;;
53903;SDS011;39812;52.430;16.936;2023-11-21T08:45:23;10.32;;;5.38;;
53903;SDS011;39812;52.430;16.936;2023-11-21T08:47:50;8.32;;;4.30;;
53903;SDS011;39812;52.430;16.936;2023-11-21T08:50:16;7.13;;;4.70;;
53903;SDS011;39812;52.430;16.936;2023-11-21T08:52:43;12.35;;;5.97;;
53903;SDS011;39812;52.430;16.936;2023-11-21T08:55:10;11.27;;;5.32;;
53903;SDS011;39812;52.430;16.936;2023-11-21T08:57:37;10.50;;;5.95;;
53903;SDS011;39812;52.430;16.936;2023-11-21T09:00:04;16.67;;;8.48;;
53903;SDS011;39812;52.430;16.936;2023-11-21T09:02:37;11.80;;;6.75;;
53903;SDS011;39812;52.430;16.936;2023-11-21T09:05:06;14.95;;;7.20;;
53903;SDS011;39812;52.430;16.936;2023-11-21T09:07:34;14.57;;;7.70;;
53903;SDS011;39812;52.430;16.936;2023-11-21T09:10:00;15.85;;;8.23;;
53903;SDS011;39812;52.430;16.936;2023-11-21T09:12:26;13.32;;;6.90;;
53903;SDS011;39812;52.430;16.936;2023-11-21T09:14:52;13.52;;;8.05;;
53903;SDS011;39812;52.430;16.936;2023-11-21T09:17:18;15.07;;;8.30;;
53903;SDS011;39812;52.430;16.936;2023-11-21T09:19:44;14.82;;;7.32;;
53903;SDS011;39812;52.430;16.936;2023-11-21T09:22:14;17.60;;;8.25;;
53903;SDS011;39812;52.430;16.936;2023-11-21T09:24:40;14.30;;;8.40;;
53903;SDS011;39812;52.430;16.936;2023-11-21T09:27:06;11.85;;;6.40;;
53903;SDS011;39812;52.430;16.936;2023-11-21T09:29:31;15.15;;;7.80;;
53903;SDS011;39812;52.430;16.936;2023-11-21T09:31:58;10.82;;;6.65;;
53903;SDS011;39812;52.430;16.936;2023-11-21T09:34:27;15.32;;;8.65;;
53903;SDS011;39812;52.430;16.936;2023-11-21T09:36:53;17.45;;;8.20;;
53903;SDS011;39812;52.430;16.936;2023-11-21T09:39:19;13.25;;;7.55;;
53903;SDS011;39812;52.430;16.936;2023-11-21T09:41:51;16.73;;;7.90;;
53903;SDS011;39812;52.430;16.936;2023-11-21T09:44:29;14.40;;;7.90;;
53903;SDS011;39812;52.430;16.936;2023-11-21T09:47:00;13.27;;;7.30;;
53903;SDS011;39812;52.430;16.936;2023-11-21T09:49:26;15.80;;;8.20;;
53903;SDS011;39812;52.430;16.936;2023-11-21T09:51:54;12.27;;;7.38;;
53903;SDS011;39812;52.430;16.936;2023-11-21T09:54:22;16.80;;;8.02;;
53903;SDS011;39812;52.430;16.936;2023-11-21T09:56:48;15.88;;;8.77;;
53903;SDS011;39812;52.430;16.936;2023-11-21T09:59:15;14.57;;;8.30;;
53903;SDS011;39812;52.430;16.936;2023-11-21T10:01:41;15.27;;;8.50;;
53903;SDS011;39812;52.430;16.936;2023-11-21T10:04:08;14.75;;;7.13;;
53903;SDS011;39812;52.430;16.936;2023-11-21T10:06:39;13.10;;;7.80;;
53903;SDS011;39812;52.430;16.936;2023-11-21T10:09:07;12.23;;;7.10;;
53903;SDS011;39812;52.430;16.936;2023-11-21T10:11:40;16.00;;;6.95;;
53903;SDS011;39812;52.430;16.936;2023-11-21T10:14:08;13.90;;;7.85;;
53903;SDS011;39812;52.430;16.936;2023-11-21T10:16:37;12.88;;;7.40;;
53903;SDS011;39812;52.430;16.936;2023-11-21T10:19:04;14.80;;;8.13;;
53903;SDS011;39812;52.430;16.936;2023-11-21T10:21:34;14.00;;;8.10;;
53903;SDS011;39812;52.430;16.936;2023-11-21T10:24:00;12.25;;;7.88;;
53903;SDS011;39812;52.430;16.936;2023-11-21T10:26:26;16.05;;;7.05;;
53903;SDS011;39812;52.430;16.936;2023-11-21T10:28:59;15.02;;;7.43;;
53903;SDS011;39812;52.430;16.936;2023-11-21T10:33:55;15.13;;;6.93;;
53903;SDS011;39812;52.430;16.936;2023-11-21T10:36:38;15.75;;;7.78;;
53903;SDS011;39812;52.430;16.936;2023-11-21T10:39:04;12.57;;;6.75;;
53903;SDS011;39812;52.430;16.936;2023-11-21T10:41:30;12.93;;;7.60;;
53903;SDS011;39812;52.430;16.936;2023-11-21T10:43:56;15.90;;;8.05;;
53903;SDS011;39812;52.430;16.936;2023-11-21T10:46:22;15.25;;;7.63;;
53903;SDS011;39812;52.430;16.936;2023-11-21T10:48:52;19.13;;;6.95;;
53903;SDS011;39812;52.430;16.936;2023-11-21T10:51:21;13.10;;;6.95;;
53903;SDS011;39812;52.430;16.936;2023-11-21T10:53:47;14.95;;;7.40;;
53903;SDS011;39812;52.430;16.936;2023-11-21T10:56:15;12.00;;;7.57;;
53903;SDS011;39812;52.430;16.936;2023-11-21T10:58:45;16.70;;;8.02;;
53903;SDS011;39812;52.430;16.936;2023-11-21T11:01:10;13.07;;;7.22;;
53903;SDS011;39812;52.430;16.936;2023-11-21T11:03:39;13.45;;;6.45;;
53903;SDS011;39812;52.430;16.936;2023-11-21T11:06:06;17.60;;;8.32;;
53903;SDS011;39812;52.430;16.936;2023-11-21T11:08:38;17.20;;;7.38;;
53903;SDS011;39812;52.430;16.936;2023-11-21T11:11:05;13.90;;;7.28;;
53903;SDS011;39812;52.430;16.936;2023-11-21T11:13:31;14.23;;;6.63;;
53903;SDS011;39812;52.430;16.936;2023-11-21T11:16:00;14.05;;;7.22;;
53903;SDS011;39812;52.430;16.936;2023-11-21T11:18:27;14.45;;;7.78;;
53903;SDS011;39812;52.430;16.936;2023-11-21T11:20:54;15.32;;;7.43;;
53903;SDS011;39812;52.430;16.936;2023-11-21T11:23:40;15.73;;;8.60;;
53903;SDS011;39812;52.430;16.936;2023-11-21T11:29:03;18.52;;;9.50;;
53903;SDS011;39812;52.430;16.936;2023-11-21T11:31:55;12.18;;;7.13;;
53903;SDS011;39812;52.430;16.936;2023-11-21T11:34:35;16.45;;;7.80;;
53903;SDS011;39812;52.430;16.936;2023-11-21T11:37:06;17.50;;;8.60;;
53903;SDS011;39812;52.430;16.936;2023-11-21T11:39:37;13.68;;;7.75;;
53903;SDS011;39812;52.430;16.936;2023-11-21T11:42:05;16.52;;;7.53;;
53903;SDS011;39812;52.430;16.936;2023-11-21T11:50:11;18.67;;;8.75;;
53903;SDS011;39812;52.430;16.936;2023-11-21T11:52:47;21.73;;;9.13;;
53903;SDS011;39812;52.430;16.936;2023-11-21T11:55:18;19.33;;;8.93;;
53903;SDS011;39812;52.430;16.936;2023-11-21T11:57:46;15.70;;;8.68;;
53903;SDS011;39812;52.430;16.936;2023-11-21T12:03:01;14.95;;;8.68;;
53903;SDS011;39812;52.430;16.936;2023-11-21T12:05:28;16.10;;;9.68;;
53903;SDS011;39812;52.430;16.936;2023-11-21T12:07:59;19.67;;;9.20;;
53903;SDS011;39812;52.430;16.936;2023-11-21T12:10:27;22.30;;;10.95;;
53903;SDS011;39812;52.430;16.936;2023-11-21T12:12:55;16.83;;;9.93;;
53903;SDS011;39812;52.430;16.936;2023-11-21T12:15:35;25.52;;;10.50;;
53903;SDS011;39812;52.430;16.936;2023-11-21T12:18:01;20.02;;;9.60;;
53903;SDS011;39812;52.430;16.936;2023-11-21T12:20:27;20.95;;;9.73;;
53903;SDS011;39812;52.430;16.936;2023-11-21T12:22:54;19.30;;;9.40;;
53903;SDS011;39812;52.430;16.936;2023-11-21T12:25:24;18.38;;;9.68;;
53903;SDS011;39812;52.430;16.936;2023-11-21T12:27:54;22.67;;;10.10;;
53903;SDS011;39812;52.430;16.936;2023-11-21T12:30:21;22.35;;;9.23;;
53903;SDS011;39812;52.430;16.936;2023-11-21T12:32:48;20.08;;;7.53;;
53903;SDS011;39812;52.430;16.936;2023-11-21T12:35:16;18.83;;;10.02;;
53903;SDS011;39812;52.430;16.936;2023-11-21T12:37:44;24.48;;;10.95;;
53903;SDS011;39812;52.430;16.936;2023-11-21T12:40:11;20.10;;;10.70;;
53903;SDS011;39812;52.430;16.936;2023-11-21T12:42:43;18.50;;;10.40;;
53903;SDS011;39812;52.430;16.936;2023-11-21T12:47:41;22.90;;;9.77;;
53903;SDS011;39812;52.430;16.936;2023-11-21T12:50:08;24.45;;;10.35;;
53903;SDS011;39812;52.430;16.936;2023-11-21T12:52:39;24.45;;;11.50;;
53903;SDS011;39812;52.430;16.936;2023-11-21T12:55:05;22.00;;;9.27;;
53903;SDS011;39812;52.430;16.936;2023-11-21T12:57:33;22.92;;;9.82;;
53903;SDS011;39812;52.430;16.936;2023-11-21T12:59:58;17.80;;;9.82;;
53903;SDS011;39812;52.430;16.936;2023-11-21T13:02:27;19.52;;;9.73;;
53903;SDS011;39812;52.430;16.936;2023-11-21T13:04:56;20.50;;;9.55;;
53903;SDS011;39812;52.430;16.936;2023-11-21T13:07:23;21.92;;;9.45;;
53903;SDS011;39812;52.430;16.936;2023-11-21T13:09:52;23.00;;;9.15;;
53903;SDS011;39812;52.430;16.936;2023-11-21T13:12:23;20.85;;;9.30;;
53903;SDS011;39812;52.430;16.936;2023-11-21T13:14:49;16.27;;;8.30;;
53903;SDS011;39812;52.430;16.936;2023-11-21T13:17:15;18.60;;;8.95;;
53903;SDS011;39812;52.430;16.936;2023-11-21T13:19:41;20.20;;;9.45;;
53903;SDS011;39812;52.430;16.936;2023-11-21T13:22:07;20.30;;;10.00;;
53903;SDS011;39812;52.430;16.936;2023-11-21T13:24:36;18.65;;;8.77;;
53903;SDS011;39812;52.430;16.936;2023-11-21T13:27:01;16.85;;;8.60;;
53903;SDS011;39812;52.430;16.936;2023-11-21T13:29:27;20.85;;;9.32;;
53903;SDS011;39812;52.430;16.936;2023-11-21T13:31:54;14.98;;;7.57;;
53903;SDS011;39812;52.430;16.936;2023-11-21T13:34:20;18.48;;;8.88;;
53903;SDS011;39812;52.430;16.936;2023-11-21T13:36:47;22.35;;;9.32;;
53903;SDS011;39812;52.430;16.936;2023-11-21T13:39:13;17.85;;;8.30;;
53903;SDS011;39812;52.430;16.936;2023-11-21T13:41:40;21.45;;;8.60;;
53903;SDS011;39812;52.430;16.936;2023-11-21T13:44:07;21.40;;;7.63;;
53903;SDS011;39812;52.430;16.936;2023-11-21T13:46:51;19.33;;;8.70;;
53903;SDS011;39812;52.430;16.936;2023-11-21T13:49:17;16.13;;;8.27;;
53903;SDS011;39812;52.430;16.936;2023-11-21T13:51:46;15.85;;;7.57;;
53903;SDS011;39812;52.430;16.936;2023-11-21T13:54:15;15.55;;;8.55;;
53903;SDS011;39812;52.430;16.936;2023-11-21T13:56:45;15.45;;;7.45;;
53903;SDS011;39812;52.430;16.936;2023-11-21T13:59:11;15.68;;;8.20;;
53903;SDS011;39812;52.430;16.936;2023-11-21T14:01:50;17.88;;;9.02;;
53903;SDS011;39812;52.430;16.936;2023-11-21T14:04:36;23.77;;;8.65;;
53903;SDS011;39812;52.430;16.936;2023-11-21T14:07:20;16.45;;;8.95;;
53903;SDS011;39812;52.430;16.936;2023-11-21T14:10:00;14.63;;;7.32;;
53903;SDS011;39812;52.430;16.936;2023-11-21T14:12:26;16.83;;;8.20;;
53903;SDS011;39812;52.430;16.936;2023-11-21T14:14:53;21.05;;;8.35;;
53903;SDS011;39812;52.430;16.936;2023-11-21T14:17:20;20.10;;;8.55;;
53903;SDS011;39812;52.430;16.936;2023-11-21T14:19:47;19.92;;;9.20;;
53903;SDS011;39812;52.430;16.936;2023-11-21T14:22:14;19.48;;;9.10;;
53903;SDS011;39812;52.430;16.936;2023-11-21T14:24:39;14.90;;;8.23;;
53903;SDS011;39812;52.430;16.936;2023-11-21T14:27:12;17.15;;;8.43;;
53903;SDS011;39812;52.430;16.936;2023-11-21T14:29:38;17.92;;;8.85;;
53903;SDS011;39812;52.430;16.936;2023-11-21T14:32:08;17.08;;;7.53;;
53903;SDS011;39812;52.430;16.936;2023-11-21T14:34:34;22.75;;;9.18;;
53903;SDS011;39812;52.430;16.936;2023-11-21T14:37:00;18.35;;;9.10;;